createdAt,value
2018-05-29T00:05:26.394Z,46
2018-05-29T00:15:25.754Z,45.9
2018-05-29T00:25:24.822Z,45.9
2018-05-29T00:35:24.044Z,45.9
2018-05-29T00:45:23.258Z,45.8
2018-05-29T00:55:22.629Z,45.8
2018-05-29T01:05:21.703Z,45.7
2018-05-29T01:15:20.913Z,45.6
2018-05-29T01:25:20.189Z,45.6
2018-05-29T01:35:19.357Z,45.5
2018-05-29T01:45:18.619Z,45.4
2018-05-29T01:55:17.794Z,45.4
2018-05-29T02:05:17.001Z,45.4
2018-05-29T02:15:16.269Z,45.3
2018-05-29T02:25:15.445Z,45.3
2018-05-29T02:35:14.661Z,45.2
2018-05-29T02:45:13.923Z,41.9
2018-05-29T02:55:13.088Z,36.4
2018-05-29T03:05:12.309Z,36.7
2018-05-29T03:15:11.532Z,36.2
2018-05-29T03:25:10.750Z,36
2018-05-29T03:35:10.012Z,35.3
2018-05-29T03:45:09.180Z,32.3
2018-05-29T03:55:08.403Z,31.4
2018-05-29T04:05:07.635Z,30.3
2018-05-29T04:15:06.899Z,30.7
2018-05-29T04:25:06.110Z,30.3
2018-05-29T04:35:05.328Z,30.5
2018-05-29T04:45:04.512Z,30.7
2018-05-29T04:55:03.729Z,30.9
2018-05-29T05:05:02.945Z,31.1
2018-05-29T05:15:02.158Z,31.3
2018-05-29T05:25:01.381Z,31.4
2018-05-29T05:35:00.592Z,31.8
2018-05-29T05:44:59.809Z,32.1
2018-05-29T05:54:59.034Z,32.6
2018-05-29T06:04:58.255Z,33.1
2018-05-29T06:14:57.465Z,33.8
2018-05-29T06:24:56.683Z,34.6
2018-05-29T06:34:55.898Z,35.4
2018-05-29T06:44:55.187Z,36.4
2018-05-29T06:54:54.343Z,37.3
2018-05-29T07:04:53.565Z,38.3
2018-05-29T07:14:52.782Z,39.4
2018-05-29T07:24:51.991Z,40.4
2018-05-29T07:34:51.210Z,41.4
2018-05-29T07:44:50.424Z,42.3
2018-05-29T07:54:49.657Z,43.3
2018-05-29T08:04:48.868Z,44.1
2018-05-29T08:14:48.089Z,44.9
2018-05-29T08:24:47.293Z,45.6
2018-05-29T08:34:46.518Z,46.3
2018-05-29T08:44:45.741Z,46.9
2018-05-29T08:54:45.017Z,47.6
2018-05-29T09:04:44.228Z,48.3
2018-05-29T09:14:43.390Z,48.9
2018-05-29T09:24:42.656Z,49.6
2018-05-29T09:34:41.877Z,50.4
2018-05-29T09:44:41.135Z,51.1
2018-05-29T09:54:40.262Z,51.8
2018-05-29T10:04:39.485Z,52.5
2018-05-29T10:14:38.698Z,53.2
2018-05-29T10:24:37.914Z,53.8
2018-05-29T10:34:37.140Z,54.4
2018-05-29T10:44:36.351Z,55.2
2018-05-29T10:54:35.572Z,55.9
2018-05-29T11:04:34.792Z,56.6
2018-05-29T11:14:34.006Z,57.3
2018-05-29T11:24:33.220Z,58
2018-05-29T11:34:32.447Z,58.6
2018-05-29T11:44:31.660Z,59.3
2018-05-29T11:54:30.874Z,59.9
2018-05-29T12:04:30.110Z,60.4
2018-05-29T12:14:29.314Z,60.9
2018-05-29T12:24:28.537Z,61.6
2018-05-29T12:34:27.801Z,62.1
2018-05-29T12:44:26.966Z,62.6
2018-05-29T12:54:26.236Z,63.2
2018-05-29T13:04:25.411Z,63.7
2018-05-29T13:14:24.623Z,64.1
2018-05-29T13:24:23.846Z,64.3
2018-05-29T13:34:23.053Z,64.6
2018-05-29T13:44:22.277Z,64.9
2018-05-29T13:54:21.499Z,65.2
2018-05-29T14:04:20.716Z,65.6
2018-05-29T14:14:19.933Z,65.9
2018-05-29T14:24:19.208Z,66.3
2018-05-29T14:34:18.366Z,66.6
2018-05-29T14:44:17.638Z,66.8
2018-05-29T14:54:16.805Z,67
2018-05-29T15:04:16.033Z,67.3
2018-05-29T15:14:15.252Z,67.5
2018-05-29T15:24:14.465Z,67.3
2018-05-29T15:34:13.683Z,67.3
2018-05-29T15:44:12.908Z,67.2
2018-05-29T15:54:12.122Z,67.2
2018-05-29T16:04:11.346Z,67
2018-05-29T16:14:10.567Z,66.5
2018-05-29T16:24:09.781Z,66.1
2018-05-29T16:34:09.006Z,65.9
2018-05-29T16:44:08.223Z,65.4
2018-05-29T16:54:07.600Z,64.2
2018-05-29T17:04:06.731Z,63.1
2018-05-29T17:14:05.950Z,60.9
2018-05-29T17:24:05.116Z,59.6
2018-05-29T17:34:04.337Z,58.8
2018-05-29T17:44:03.561Z,58.4
2018-05-29T17:54:02.796Z,50.2
2018-05-29T18:04:02.059Z,43.4
2018-05-29T18:14:01.328Z,43.2
2018-05-29T18:24:00.447Z,42.4
2018-05-29T18:33:59.718Z,42.6
2018-05-29T18:43:58.894Z,42.8
2018-05-29T18:53:58.119Z,42.2
2018-05-29T19:03:57.382Z,42.3
2018-05-29T19:13:56.554Z,42.5
2018-05-29T19:23:55.780Z,40.4
2018-05-29T19:33:54.991Z,39.3
2018-05-29T19:43:54.217Z,37.1
2018-05-29T19:53:53.442Z,37.4
2018-05-29T20:03:52.714Z,35.2
2018-05-29T20:13:51.887Z,35.8
2018-05-29T20:23:51.169Z,35.9
2018-05-29T20:33:50.331Z,36.3
2018-05-29T20:43:49.620Z,36.5
2018-05-29T20:53:48.779Z,36.6
2018-05-29T21:03:47.993Z,36.8
2018-05-29T21:13:47.218Z,36.9
2018-05-29T21:23:46.446Z,37.1
2018-05-29T21:33:45.716Z,37.2
2018-05-29T21:43:44.929Z,37.3
2018-05-29T21:53:44.098Z,37.4
2018-05-29T22:03:43.314Z,37.5
2018-05-29T22:13:42.544Z,37.6
2018-05-29T22:23:41.763Z,37.7
2018-05-29T22:33:40.973Z,37.8
2018-05-29T22:43:40.254Z,37.8
2018-05-29T22:53:39.423Z,37.9
2018-05-29T23:03:38.641Z,38
2018-05-29T23:13:37.863Z,38.1
2018-05-29T23:23:37.073Z,38.1
2018-05-29T23:33:36.339Z,38.2
2018-05-29T23:43:35.508Z,38.3
2018-05-29T23:53:34.735Z,38.3
